Accueil
METAR-TAF:

METAR-TAF

Aéroports :

Aéroport international de Djerba-Zarzis

Djerba, Tunisie

latitude: 33-52N, longitude: 010-46E, altitude: 3 m

Observation

Le bulletin a été fait il y a 39 minutes, à 16:30 UTC
Vent 11 kt de est
Température 29°C
Humidité 70%
Pression 1016 hPa
Visibilité 10 km ou plus
Nuages épars à une hauteur de 2000 ft

METAR: DTTJ 231630Z 09011KT 9999 SCT020 29/23 Q1016 NOSIG

Heure: 18:09 (17:09 UTC)

Prévision

Le bulletin a été fait il y a 6 heures et 9 minutes, à 11:00 UTC
Prévision valable du 23 à 12 UTC au 24 à 12 UTC
Vent 13 kt de est/nord-est
Visibilité 10 km ou plus
Nuages épars à une hauteur de 2000 ft
Evoluant progressivement
du 23 à 16 UTC au 23 à 18 UTC
Vent 12 kt de est/sud-est

TAF: DTTJ 231100Z 2312/2412 06013KT 9999 SCT020 BECMG 2316/2318 12012KT

Observations et prévisions météorologiques de plus de 4000 aéroports (messages METAR et TAF).

Les stations disponibles sont représentées par des disques jaunes et rouges sur la carte.

Passer la souris dessus pour voir le nom de la station.

Cliquer dessus pour voir les observations et prévisions météorologiques.

Pour changer de carte: cliquez sur les boutons verts avec une croix noire pour zoomer, sur le bouton vert avec un tiret pour effectuer un zoom arrière, ou sur les flèches vertes pour les cartes adjacentes.


METAR-TAF: